createdAt,value
2023-03-22T00:01:28.218Z,100151.60
2023-03-22T00:03:55.564Z,100148.23
2023-03-22T00:06:26.830Z,100145.41
2023-03-22T00:08:54.118Z,100145.63
2023-03-22T00:11:26.224Z,100147.11
2023-03-22T00:13:54.331Z,100148.26
2023-03-22T00:16:21.907Z,100149.85
2023-03-22T00:18:59.127Z,100146.42
2023-03-22T00:21:26.316Z,100146.95
2023-03-22T00:23:53.260Z,100149.80
2023-03-22T00:26:20.185Z,100152.80
2023-03-22T00:28:47.274Z,100155.67
2023-03-22T00:31:14.830Z,100158.22
2023-03-22T00:33:43.229Z,100158.94
2023-03-22T00:36:11.753Z,100156.55
2023-03-22T00:38:43.461Z,100153.05
2023-03-22T00:41:13.764Z,100155.95
2023-03-22T00:43:41.710Z,100154.66
2023-03-22T00:46:09.905Z,100157.27
2023-03-22T00:48:37.006Z,100159.91
2023-03-22T00:51:04.999Z,100160.02
2023-03-22T00:53:33.121Z,100156.64
2023-03-22T00:56:00.409Z,100156.88
2023-03-22T00:58:28.186Z,100155.91
2023-03-22T01:00:55.055Z,100159.93
2023-03-22T01:03:24.103Z,100160.52
2023-03-22T01:05:55.881Z,100153.96
2023-03-22T01:08:23.642Z,100153.80
2023-03-22T01:10:51.601Z,100150.91
2023-03-22T01:13:18.731Z,100153.85
2023-03-22T01:15:49.139Z,100155.06
2023-03-22T01:18:16.390Z,100156.89
2023-03-22T01:20:43.466Z,100160.95
2023-03-22T01:23:10.481Z,100166.36
2023-03-22T01:25:37.674Z,100167.91
2023-03-22T01:28:06.288Z,100172.36
2023-03-22T01:30:33.217Z,100172.55
2023-03-22T01:33:00.906Z,100175.38
2023-03-22T01:35:28.036Z,100172.55
2023-03-22T01:37:55.409Z,100177.65
2023-03-22T01:40:22.435Z,100180.51
2023-03-22T01:42:49.792Z,100186.47
2023-03-22T01:45:34.632Z,100187.51
2023-03-22T01:48:07.953Z,100183.48
2023-03-22T01:50:39.143Z,100183.80
2023-03-22T01:53:08.239Z,100186.96
2023-03-22T01:55:37.454Z,100185.86
2023-03-22T01:58:17.610Z,100187.01
2023-03-22T02:00:51.348Z,100187.81
2023-03-22T02:04:03.323Z,100182.77
2023-03-22T02:06:31.854Z,100183.51
2023-03-22T02:09:10.590Z,100185.23
2023-03-22T02:11:46.609Z,100190.05
2023-03-22T02:14:45.711Z,100194.41
2023-03-22T02:17:59.297Z,100195.52
2023-03-22T02:20:47.799Z,100198.80
2023-03-22T02:23:32.730Z,100198.05
2023-03-22T02:26:41.616Z,100202.98
2023-03-22T02:29:38.614Z,100198.55
2023-03-22T02:32:36.760Z,100195.40
2023-03-22T02:35:25.735Z,100189.79
2023-03-22T02:38:12.083Z,100188.78
2023-03-22T02:40:57.538Z,100191.69
2023-03-22T02:43:38.942Z,100195.53
2023-03-22T02:46:09.644Z,100191.96
2023-03-22T02:49:03.777Z,100193.73
2023-03-22T02:51:58.772Z,100196.61
2023-03-22T02:54:35.109Z,100198.42
2023-03-22T02:57:13.376Z,100198.66
2023-03-22T02:59:42.957Z,100198.27
2023-03-22T03:02:16.852Z,100200.17
2023-03-22T03:04:49.381Z,100196.25
2023-03-22T03:07:22.194Z,100192.13
2023-03-22T03:09:51.188Z,100194.66
2023-03-22T03:12:22.793Z,100194.33
2023-03-22T03:14:51.641Z,100197.86
2023-03-22T03:17:44.311Z,100196.42
2023-03-22T03:20:39.542Z,100201.86
2023-03-22T03:23:25.160Z,100200.39
2023-03-22T03:26:05.834Z,100196.85
2023-03-22T03:28:37.859Z,100197.96
2023-03-22T03:31:09.182Z,100202.85
2023-03-22T03:33:44.128Z,100196.73
2023-03-22T03:36:16.787Z,100204.70
2023-03-22T03:38:49.171Z,100201.96
2023-03-22T03:41:21.220Z,100206.56
2023-03-22T03:43:51.007Z,100212.39
2023-03-22T03:46:18.407Z,100218.49
2023-03-22T03:48:49.627Z,100224.34
2023-03-22T03:51:17.619Z,100224.48
2023-03-22T03:53:44.833Z,100222.83
2023-03-22T03:56:11.924Z,100226.53
2023-03-22T03:58:44.123Z,100225.88
2023-03-22T04:01:11.636Z,100228.31
2023-03-22T04:04:09.094Z,100232.83
2023-03-22T04:06:49.069Z,100235.37
2023-03-22T04:09:19.637Z,100234.95
2023-03-22T04:11:55.241Z,100239.78
2023-03-22T04:14:24.129Z,100244.86
2023-03-22T04:16:51.631Z,100246.36
2023-03-22T04:19:22.359Z,100248.59
2023-03-22T04:21:52.569Z,100249.73
2023-03-22T04:24:21.292Z,100246.73
2023-03-22T04:26:51.906Z,100252.30
2023-03-22T04:29:22.484Z,100251.84
2023-03-22T04:31:53.406Z,100257.83
2023-03-22T04:34:29.313Z,100260.24
2023-03-22T04:37:07.562Z,100264.26
2023-03-22T04:39:44.082Z,100264.44
2023-03-22T04:42:23.914Z,100271.52
2023-03-22T04:44:58.116Z,100272.19
2023-03-22T04:47:25.695Z,100271.94
2023-03-22T04:49:53.197Z,100270.88
2023-03-22T04:52:20.747Z,100281.39
2023-03-22T04:54:52.164Z,100279.73
2023-03-22T04:57:19.418Z,100284.69
2023-03-22T04:59:47.642Z,100282.23
2023-03-22T05:02:16.428Z,100282.85
2023-03-22T05:04:43.936Z,100284.45
2023-03-22T05:07:22.625Z,100283.71
2023-03-22T05:09:53.511Z,100289.56
2023-03-22T05:12:20.596Z,100293.01
2023-03-22T05:15:00.611Z,100298.50
2023-03-22T05:17:31.518Z,100296.44
2023-03-22T05:20:07.757Z,100297.05
2023-03-22T05:22:37.521Z,100293.40
2023-03-22T05:25:05.952Z,100295.02
2023-03-22T05:27:34.539Z,100293.55
2023-03-22T05:30:21.181Z,100298.58
2023-03-22T05:33:03.252Z,100299.41
2023-03-22T05:35:34.436Z,100302.39
2023-03-22T05:38:02.686Z,100302.59
2023-03-22T05:40:32.768Z,100305.27
2023-03-22T05:43:00.606Z,100307.84
2023-03-22T05:45:36.496Z,100311.22
2023-03-22T05:48:20.423Z,100312.06
2023-03-22T05:50:47.572Z,100316.27
2023-03-22T05:53:16.551Z,100316.36
2023-03-22T05:56:01.796Z,100319.91
2023-03-22T05:58:31.979Z,100327.10
2023-03-22T06:01:11.665Z,100323.60
2023-03-22T06:03:48.075Z,100322.20
2023-03-22T06:06:24.314Z,100321.87
2023-03-22T06:09:15.954Z,100319.42
2023-03-22T06:11:50.913Z,100319.58
2023-03-22T06:14:18.339Z,100315.52
2023-03-22T06:17:08.231Z,100319.44
2023-03-22T06:19:40.333Z,100323.03
2023-03-22T06:22:08.354Z,100325.98
2023-03-22T06:24:36.282Z,100322.10
2023-03-22T06:27:06.811Z,100320.92
2023-03-22T06:29:35.501Z,100321.40
2023-03-22T06:32:03.703Z,100325.86
2023-03-22T06:34:32.484Z,100321.46
2023-03-22T06:37:00.382Z,100321.45
2023-03-22T06:39:33.418Z,100319.05
2023-03-22T06:42:00.639Z,100317.96
2023-03-22T06:44:28.005Z,100314.75
2023-03-22T06:47:15.669Z,100316.25
2023-03-22T06:50:12.322Z,100319.72
2023-03-22T06:53:01.376Z,100318.08
2023-03-22T06:55:32.703Z,100314.81
2023-03-22T06:58:01.873Z,100310.56
2023-03-22T07:00:30.417Z,100309.29
2023-03-22T07:02:58.776Z,100307.65
2023-03-22T07:05:35.296Z,100306.59
2023-03-22T07:08:02.466Z,100308.05
2023-03-22T07:10:37.617Z,100307.21
2023-03-22T07:13:06.023Z,100308.41
2023-03-22T07:15:34.562Z,100305.37
2023-03-22T07:18:15.167Z,100305.30
2023-03-22T07:20:42.232Z,100304.05
2023-03-22T07:23:10.370Z,100309.63
2023-03-22T07:25:43.805Z,100307.02
2023-03-22T07:28:23.824Z,100306.41
2023-03-22T07:31:03.484Z,100305.47
2023-03-22T07:33:34.944Z,100302.43
2023-03-22T07:36:02.924Z,100300.23
2023-03-22T07:38:30.429Z,100299.42
2023-03-22T07:40:58.301Z,100299.86
2023-03-22T07:43:30.033Z,100296.16
2023-03-22T07:46:09.017Z,100302.48
2023-03-22T07:48:58.002Z,100298.18
2023-03-22T07:51:48.801Z,100297.95
2023-03-22T07:54:32.210Z,100300.10
2023-03-22T07:57:01.777Z,100299.53
2023-03-22T07:59:30.786Z,100299.59
2023-03-22T08:01:59.351Z,100300.66
2023-03-22T08:04:31.521Z,100298.08
2023-03-22T08:07:09.485Z,100303.21
2023-03-22T08:09:38.826Z,100299.73
2023-03-22T08:12:06.717Z,100302.77
2023-03-22T08:14:36.822Z,100299.48
2023-03-22T08:17:07.477Z,100297.36
2023-03-22T11:34:46.727Z,100220.33
2023-03-22T11:37:18.501Z,100219.92
2023-03-22T11:40:00.274Z,100219.25
2023-03-22T11:42:29.058Z,100215.93
2023-03-22T11:44:57.447Z,100217.72
2023-03-22T11:47:32.986Z,100218.33
2023-03-22T11:50:05.181Z,100217.20
2023-03-22T11:52:33.876Z,100213.39
2023-03-22T11:55:03.122Z,100210.98
2023-03-22T11:57:34.900Z,100212.73
2023-03-22T12:00:27.259Z,100211.61
2023-03-22T12:03:04.886Z,100209.16
2023-03-22T12:05:43.068Z,100210.95
2023-03-22T12:08:27.351Z,100214.14
2023-03-22T12:11:06.395Z,100212.02
2023-03-22T12:13:50.223Z,100208.64
2023-03-22T12:16:25.276Z,100207.42
2023-03-22T12:19:26.152Z,100203.48
2023-03-22T12:21:55.552Z,100199.36
2023-03-22T12:24:33.314Z,100199.84
2023-03-22T12:27:21.791Z,100198.44
2023-03-22T12:30:18.358Z,100198.23
2023-03-22T12:33:06.861Z,100196.55
2023-03-22T12:35:42.573Z,100193.83
2023-03-22T12:38:24.450Z,100198.33
2023-03-22T12:40:56.187Z,100193.35
2023-03-22T12:43:56.451Z,100191.20
2023-03-22T12:46:32.396Z,100184.09
2023-03-22T12:49:46.013Z,100184.11
2023-03-22T12:52:21.355Z,100181.57
2023-03-22T12:54:52.975Z,100180.89
2023-03-22T12:57:21.404Z,100184.02
2023-03-22T12:59:52.468Z,100180.92
2023-03-22T13:02:30.501Z,100179.55
2023-03-22T13:05:05.317Z,100179.85
2023-03-22T13:07:49.692Z,100185.50
2023-03-22T13:10:34.494Z,100182.41
2023-03-22T13:13:23.652Z,100184.77
2023-03-22T13:16:13.760Z,100176.91
2023-03-22T13:18:45.442Z,100177.59
2023-03-22T13:21:21.378Z,100177.98
2023-03-22T13:24:06.182Z,100178.61
2023-03-22T13:26:55.169Z,100182.38
2023-03-22T13:29:42.133Z,100184.38
2023-03-22T13:32:38.024Z,100185.02
2023-03-22T13:35:22.096Z,100185.63
2023-03-22T13:37:52.001Z,100187.21
2023-03-22T13:40:35.184Z,100187.71
2023-03-22T13:43:24.505Z,100189.34
2023-03-22T13:46:06.458Z,100187.47
2023-03-22T13:48:52.610Z,100190.29
2023-03-22T13:51:27.992Z,100190.54
2023-03-22T13:54:08.534Z,100189.84
2023-03-22T13:56:56.561Z,100189.05
2023-03-22T13:59:28.050Z,100190.11
2023-03-22T14:01:59.742Z,100188.16
2023-03-22T14:04:31.576Z,100189.13
2023-03-22T14:07:07.282Z,100188.02
2023-03-22T14:09:51.463Z,100187.95
2023-03-22T14:12:31.209Z,100189.89
2023-03-22T14:15:04.852Z,100191.48
2023-03-22T14:17:58.376Z,100193.35
2023-03-22T14:20:34.705Z,100194.66
